Time;durP1;ratioP1;P1;durP2;ratioP2;P2;SDS_P1;SDS_P2;PMS_P1;PMS_P2;Temp;Humidity;BMP_temperature;BMP_pressure;BME280_temperature;BME280_humidity;BME280_pressure;Samples;Min_cycle;Max_cycle;Signal;HPM_P1;HPM_P2
2021/12/26 00:01:26;;;;;;;;;30.00;28.00;;;;;13.79;64.97;99618.75;6223039;22;45627;-84
2021/12/26 00:03:51;;;;;;;;;31.00;28.67;;;;;13.70;65.14;99618.00;6221359;22;45882;-84
2021/12/26 00:06:21;;;;;;;;;34.67;30.33;;;;;14.01;64.95;99629.91;6195326;22;46111;-84
2021/12/26 00:08:48;;;;;;;;;26.00;23.33;;;;;13.87;65.22;99625.72;6223427;22;45591;-84
2021/12/26 00:11:14;;;;;;;;;21.33;17.33;;;;;13.76;65.26;99624.13;6224090;22;45405;-84
2021/12/26 00:17:02;;;;;;;;;26.67;23.33;;;;;13.74;64.96;99619.72;6222041;22;46064;-84
2021/12/26 00:19:28;;;;;;;;;27.00;24.00;;;;;13.73;64.80;99618.81;6196268;22;45727;-84
2021/12/26 00:21:53;;;;;;;;;24.67;23.33;;;;;13.75;64.60;99614.34;6195314;22;45533;-83
2021/12/26 00:24:19;;;;;;;;;26.67;24.33;;;;;13.80;64.99;99622.28;6222943;22;45414;-82
2021/12/26 00:26:45;;;;;;;;;29.67;22.00;;;;;13.79;64.89;99617.84;6197234;22;45578;-83
2021/12/26 00:29:10;;;;;;;;;23.00;19.67;;;;;13.75;64.95;99617.00;6197681;22;45379;-84
2021/12/26 00:31:36;;;;;;;;;25.67;23.33;;;;;13.69;64.97;99602.88;6222846;22;45619;-83
2021/12/26 00:34:02;;;;;;;;;26.67;24.00;;;;;13.72;64.85;99601.03;6197688;22;46515;-83
2021/12/26 00:36:27;;;;;;;;;32.00;26.33;;;;;13.71;64.86;99601.06;6196747;22;45213;-84
2021/12/26 00:38:53;;;;;;;;;29.67;24.00;;;;;13.68;65.06;99590.44;6222487;22;45351;-83
2021/12/26 00:41:18;;;;;;;;;27.33;25.67;;;;;13.71;64.90;99593.91;6193353;22;45300;-83
2021/12/26 00:43:45;;;;;;;;;26.67;23.67;;;;;13.69;65.07;99584.16;6193367;22;45426;-83
2021/12/26 00:46:10;;;;;;;;;30.33;27.00;;;;;13.69;65.02;99597.53;6222006;22;45441;-83
2021/12/26 00:48:36;;;;;;;;;32.67;27.33;;;;;13.62;65.02;99588.75;6221579;22;45528;-83
2021/12/26 00:51:02;;;;;;;;;26.67;25.67;;;;;13.69;65.15;99594.84;6191359;22;45488;-83
2021/12/26 00:53:28;;;;;;;;;23.67;19.67;;;;;13.62;65.51;99590.53;6219456;22;46336;-83
2021/12/26 00:55:54;;;;;;;;;27.67;25.33;;;;;13.62;65.70;99588.75;6222788;22;45429;-83
2021/12/26 00:58:20;;;;;;;;;25.00;23.00;;;;;13.60;65.63;99590.56;6222376;22;45363;-83
2021/12/26 01:00:48;;;;;;;;;28.00;23.00;;;;;13.71;65.53;99585.91;6196389;22;45442;-83
2021/12/26 01:03:15;;;;;;;;;22.67;21.67;;;;;13.67;65.66;99591.34;6224451;22;45378;-83
2021/12/26 01:05:45;;;;;;;;;36.33;30.33;;;;;13.74;65.78;99588.53;6196393;22;45482;-83
2021/12/26 01:08:16;;;;;;;;;35.33;30.67;;;;;13.72;65.87;99586.81;6197545;22;44853;-84
2021/12/26 01:10:59;;;;;;;;;34.33;32.00;;;;;13.84;65.11;99601.75;6197998;22;45508;-84
2021/12/26 01:15:55;;;;;;;;;25.00;22.00;;;;;13.58;65.72;99598.59;6219080;22;45485;-84
2021/12/26 01:18:22;;;;;;;;;30.67;26.33;;;;;13.54;65.76;99596.00;6223162;22;45596;-84
2021/12/26 01:20:54;;;;;;;;;25.33;22.33;;;;;13.50;65.89;99600.50;6197741;22;45371;-84
2021/12/26 01:23:22;;;;;;;;;27.67;21.00;;;;;13.60;65.70;99596.78;6224526;22;45709;-83
2021/12/26 01:25:48;;;;;;;;;31.00;24.67;;;;;13.59;65.48;99596.81;6224078;22;45279;-83
2021/12/26 01:28:14;;;;;;;;;31.33;26.33;;;;;13.56;65.55;99600.41;6195887;22;45430;-83
2021/12/26 01:30:41;;;;;;;;;16.00;16.00;;;;;13.55;66.02;99603.09;6196282;22;45435;-83
2021/12/26 01:33:09;;;;;;;;;32.00;30.00;;;;;13.65;65.87;99588.69;6223456;22;45641;-83
2021/12/26 01:35:36;;;;;;;;;24.00;21.33;;;;;13.52;65.83;99598.69;6195796;22;45433;-83
2021/12/26 01:41:26;;;;;;;;;33.33;27.00;;;;;13.71;65.54;99587.69;6223709;22;45444;-84
2021/12/26 01:43:57;;;;;;;;;28.00;26.33;;;;;13.56;65.47;99594.19;6195785;22;47142;-84
2021/12/26 01:46:24;;;;;;;;;30.00;27.67;;;;;13.56;65.63;99581.72;6221915;22;45327;-84
2021/12/26 01:49:32;;;;;;;;;31.33;29.67;;;;;13.75;65.35;99586.75;6222215;22;45779;-84
2021/12/26 01:52:00;;;;;;;;;28.33;23.33;;;;;13.69;65.51;99592.19;6132033;23;45655;-84
2021/12/26 01:54:32;;;;;;;;;27.33;25.00;;;;;13.67;65.49;99589.53;6158756;23;46817;-84
2021/12/26 01:57:01;;;;;;;;;28.33;23.33;;;;;13.75;65.38;99589.41;6135199;23;45502;-84
2021/12/26 01:59:28;;;;;;;;;24.33;22.67;;;;;13.63;65.60;99592.28;6160042;23;45457;-84
2021/12/26 02:02:00;;;;;;;;;22.00;15.00;;;;;13.84;64.87;99585.72;6134799;23;45425;-83
2021/12/26 02:04:28;;;;;;;;;27.33;26.33;;;;;13.73;65.47;99589.44;6157522;23;47012;-83
2021/12/26 02:07:02;;;;;;;;;28.00;25.00;;;;;13.91;64.97;99603.38;6158356;23;45473;-84
2021/12/26 02:09:28;;;;;;;;;25.33;24.67;;;;;13.57;65.29;99598.63;6159151;23;45425;-84
2021/12/26 02:11:54;;;;;;;;;26.33;22.00;;;;;13.58;65.38;99601.28;6132702;23;45711;-84
2021/12/26 02:14:20;;;;;;;;;30.00;28.00;;;;;13.53;65.37;99600.47;6157655;23;45315;-84
2021/12/26 02:16:45;;;;;;;;;20.00;20.00;;;;;13.51;65.46;99601.38;6156737;23;45386;-84
2021/12/26 02:19:11;;;;;;;;;31.33;24.33;;;;;13.53;65.28;99602.25;6157693;23;45975;-84
2021/12/26 02:29:19;;;;;;;;;36.67;31.00;;;;;13.52;65.84;99597.81;6218756;22;45358;-84
2021/12/26 02:31:45;;;;;;;;;31.33;31.00;;;;;13.61;65.80;99594.97;6219247;22;45350;-83
2021/12/26 02:34:11;;;;;;;;;32.00;29.00;;;;;13.66;65.63;99592.25;6191213;22;47862;-84
2021/12/26 02:36:36;;;;;;;;;27.00;26.00;;;;;13.64;65.63;99591.41;6190959;22;45702;-83
2021/12/26 02:39:03;;;;;;;;;30.33;25.33;;;;;13.75;65.38;99592.09;6192953;22;45815;-84
2021/12/26 02:41:35;;;;;;;;;29.33;27.67;;;;;13.59;65.54;99578.09;6193042;22;45510;-83
2021/12/26 02:44:01;;;;;;;;;28.67;27.00;;;;;13.55;65.69;99576.38;6222590;22;45909;-83
2021/12/26 02:46:27;;;;;;;;;34.67;30.33;;;;;13.63;65.85;99585.16;6197577;22;45566;-83
2021/12/26 02:48:53;;;;;;;;;27.67;27.00;;;;;13.56;66.43;99578.16;6197824;22;45790;-83
2021/12/26 02:51:19;;;;;;;;;28.00;25.33;;;;;13.54;66.59;99577.31;6223072;22;45441;-83
2021/12/26 02:53:49;;;;;;;;;34.67;29.33;;;;;13.76;66.62;99576.03;6222586;22;45461;-83
2021/12/26 02:56:15;;;;;;;;;29.00;27.00;;;;;13.49;66.98;99576.50;6191510;22;45766;-83
2021/12/26 02:58:42;;;;;;;;;26.67;23.33;;;;;13.46;66.81;99572.09;6192004;22;45466;-83
2021/12/26 03:02:00;;;;;;;;;31.33;28.00;;;;;13.89;65.63;99579.34;6219245;22;45611;-83
2021/12/26 03:04:26;;;;;;;;;30.67;27.67;;;;;13.49;66.00;99571.16;6219851;22;45423;-83
2021/12/26 03:07:01;;;;;;;;;28.00;24.67;;;;;13.56;65.87;99573.69;6191839;22;45379;-84
2021/12/26 03:09:30;;;;;;;;;26.67;25.00;;;;;13.53;65.89;99568.44;6221470;22;45635;-84
2021/12/26 03:11:56;;;;;;;;;29.67;27.33;;;;;13.56;65.80;99576.38;6195872;22;45696;-84
2021/12/26 03:14:59;;;;;;;;;25.33;25.33;;;;;13.98;65.07;99581.00;6194588;22;47083;-84
2021/12/26 03:17:25;;;;;;;;;29.67;26.00;;;;;13.53;65.67;99568.44;6223377;22;45342;-84
2021/12/26 03:19:50;;;;;;;;;30.00;27.33;;;;;13.56;65.64;99572.81;6223463;22;45369;-84
2021/12/26 03:22:16;;;;;;;;;23.00;23.00;;;;;13.57;65.78;99569.22;6195197;22;45279;-84
2021/12/26 03:24:45;;;;;;;;;27.67;27.00;;;;;13.88;65.38;99582.94;6222019;22;45580;-84
2021/12/26 03:27:12;;;;;;;;;25.67;25.33;;;;;13.61;65.33;99570.94;6220677;22;45411;-84
2021/12/26 03:29:38;;;;;;;;;26.67;23.67;;;;;13.62;65.66;99578.06;6194149;22;45349;-84
2021/12/26 03:32:04;;;;;;;;;22.00;21.00;;;;;13.61;65.57;99576.28;6192939;22;45467;-84
2021/12/26 03:34:29;;;;;;;;;27.33;25.33;;;;;13.61;65.37;99578.97;6219429;22;45340;-84
2021/12/26 03:36:56;;;;;;;;;31.33;24.67;;;;;13.64;65.59;99583.38;6192338;22;45758;-84
2021/12/26 03:39:22;;;;;;;;;30.67;25.33;;;;;13.64;65.50;99578.03;6193021;22;45358;-84
2021/12/26 03:41:47;;;;;;;;;29.00;25.67;;;;;13.66;65.38;99585.13;6221134;22;45538;-84
2021/12/26 03:44:13;;;;;;;;;27.33;25.00;;;;;13.65;65.37;99577.13;6194868;22;47275;-84
2021/12/26 03:46:38;;;;;;;;;26.33;26.33;;;;;13.64;65.58;99576.25;6195118;22;45346;-84
2021/12/26 03:49:10;;;;;;;;;29.67;28.33;;;;;13.98;65.16;99586.34;6221754;22;45634;-84
2021/12/26 03:51:36;;;;;;;;;27.67;26.33;;;;;13.69;65.34;99574.34;6194230;22;45501;-84
2021/12/26 03:54:05;;;;;;;;;29.00;26.00;;;;;13.89;65.40;99578.47;6195479;22;47397;-84
2021/12/26 03:56:31;;;;;;;;;30.33;28.00;;;;;13.74;65.30;99572.50;6196555;22;45889;-84
2021/12/26 03:58:58;;;;;;;;;31.33;26.33;;;;;13.74;64.90;99559.16;6226030;22;45576;-84
2021/12/26 04:01:25;;;;;;;;;27.00;24.33;;;;;13.80;65.15;99567.03;6198668;22;45398;-84
2021/12/26 04:03:50;;;;;;;;;32.33;29.00;;;;;13.77;65.10;99566.22;6224543;22;45497;-84
2021/12/26 04:06:16;;;;;;;;;25.67;25.67;;;;;13.80;64.75;99571.53;6224415;22;45764;-83
2021/12/26 04:08:41;;;;;;;;;25.33;23.67;;;;;13.77;65.01;99566.22;6197200;22;45366;-83
2021/12/26 04:11:07;;;;;;;;;29.00;26.33;;;;;13.77;65.29;99567.09;6224330;22;45526;-83
2021/12/26 04:13:35;;;;;;;;;25.33;23.00;;;;;13.88;65.05;99550.00;6197624;22;46798;-83
2021/12/26 04:16:01;;;;;;;;;24.00;23.00;;;;;13.65;65.35;99550.41;6197304;22;45319;-83
2021/12/26 04:18:26;;;;;;;;;24.33;21.67;;;;;13.64;65.34;99549.53;6197112;22;45477;-83
2021/12/26 04:20:52;;;;;;;;;28.33;25.67;;;;;13.58;65.21;99546.97;6223931;22;45674;-83
2021/12/26 04:23:17;;;;;;;;;28.33;25.33;;;;;13.55;65.21;99541.66;6222710;22;45346;-83
2021/12/26 04:29:05;;;;;;;;;22.67;22.67;;;;;13.51;65.50;99543.53;6221156;22;45544;-83
2021/12/26 04:31:31;;;;;;;;;29.67;25.67;;;;;13.52;65.58;99547.06;6193737;22;45539;-84
2021/12/26 04:33:56;;;;;;;;;27.67;24.00;;;;;13.53;66.50;99551.50;6192854;22;46568;-83
2021/12/26 04:36:21;;;;;;;;;30.67;26.33;;;;;13.55;66.76;99544.34;6192792;22;45793;-83
2021/12/26 04:38:48;;;;;;;;;30.00;26.33;;;;;13.90;66.25;99553.53;6195367;22;45406;-83
2021/12/26 04:41:14;;;;;;;;;26.00;26.00;;;;;13.76;65.84;99545.75;6224098;22;45243;-83
2021/12/26 04:43:39;;;;;;;;;28.00;28.00;;;;;13.49;66.81;99549.78;6195277;22;46784;-83
2021/12/26 04:46:07;;;;;;;;;31.67;26.33;;;;;13.54;66.79;99540.78;6196251;22;45728;-83
2021/12/26 04:48:37;;;;;;;;;31.33;26.33;;;;;13.43;67.16;99534.75;6224789;22;45362;-83
2021/12/26 04:51:05;;;;;;;;;27.33;25.33;;;;;13.39;67.93;99535.69;6223464;22;45454;-83
2021/12/26 04:53:30;;;;;;;;;31.33;27.67;;;;;13.33;67.94;99534.03;6193924;22;46962;-82
2021/12/26 04:55:56;;;;;;;;;26.67;25.67;;;;;13.32;68.92;99537.59;6191456;22;45397;-83
2021/12/26 04:58:22;;;;;;;;;33.33;28.67;;;;;13.33;68.84;99544.72;6221205;22;45683;-83
2021/12/26 05:00:48;;;;;;;;;20.67;18.00;;;;;13.24;68.92;99527.94;6193507;22;45272;-83
2021/12/26 05:03:14;;;;;;;;;28.00;27.33;;;;;13.21;68.99;99534.22;6194024;22;48210;-83
2021/12/26 05:05:40;;;;;;;;;33.00;27.00;;;;;13.11;68.88;99521.88;6192963;22;45358;-83
2021/12/26 05:08:06;;;;;;;;;30.67;25.67;;;;;13.05;69.08;99516.63;6192781;22;44851;-83
2021/12/26 05:10:32;;;;;;;;;30.67;29.00;;;;;13.08;68.66;99519.28;6219832;22;45697;-83
2021/12/26 05:12:59;;;;;;;;;23.67;22.67;;;;;13.14;68.01;99516.50;6221634;22;46332;-83
2021/12/26 05:15:25;;;;;;;;;26.00;24.00;;;;;13.11;68.53;99527.22;6221977;22;45381;-83
2021/12/26 05:21:12;;;;;;;;;31.00;26.67;;;;;13.11;68.03;99522.78;6221107;22;45331;-83
2021/12/26 05:23:38;;;;;;;;;29.00;26.33;;;;;13.13;67.74;99531.66;6220684;22;45429;-83
2021/12/26 05:26:03;;;;;;;;;31.00;29.67;;;;;13.11;68.20;99521.88;6221610;22;45386;-83
2021/12/26 05:28:29;;;;;;;;;26.00;26.00;;;;;13.08;67.95;99516.59;6220282;22;45744;-83
2021/12/26 05:34:16;;;;;;;;;38.00;27.00;;;;;13.08;67.55;99520.16;6221208;22;45892;-82
2021/12/26 05:36:41;;;;;;;;;22.00;22.00;;;;;13.15;67.48;99518.28;6219904;22;45799;-83
2021/12/26 05:39:07;;;;;;;;;25.33;20.00;;;;;13.14;67.58;99521.84;6193768;22;46121;-83
2021/12/26 05:41:33;;;;;;;;;25.00;22.67;;;;;13.17;67.56;99521.81;6194157;22;45617;-83
2021/12/26 05:47:20;;;;;;;;;26.00;24.67;;;;;13.29;67.30;99521.66;6219034;22;45643;-82
2021/12/26 05:49:46;;;;;;;;;21.00;19.67;;;;;13.28;67.39;99527.84;6220340;22;45774;-83
2021/12/26 05:52:11;;;;;;;;;25.00;21.67;;;;;13.38;66.86;99525.94;6220126;22;45751;-83
2021/12/26 05:54:37;;;;;;;;;26.33;22.33;;;;;13.37;67.16;99527.72;6218968;22;45647;-83
2021/12/26 05:57:05;;;;;;;;;23.33;21.00;;;;;13.55;66.83;99522.97;6194787;22;45517;-83
2021/12/26 05:59:30;;;;;;;;;24.00;24.00;;;;;13.39;66.68;99528.59;6223229;22;45481;-83
2021/12/26 06:01:56;;;;;;;;;25.33;20.33;;;;;13.42;66.75;99519.63;6195269;22;45405;-83
2021/12/26 06:04:21;;;;;;;;;24.33;22.00;;;;;13.53;66.66;99530.13;6222790;22;45723;-83
2021/12/26 06:06:47;;;;;;;;;26.33;24.33;;;;;13.61;66.68;99517.50;6193922;22;44820;-82
2021/12/26 06:09:12;;;;;;;;;26.00;21.00;;;;;13.70;66.21;99520.03;6194339;22;45345;-83
2021/12/26 06:11:39;;;;;;;;;23.00;21.67;;;;;13.78;66.11;99510.06;6222880;22;45293;-83
2021/12/26 06:14:05;;;;;;;;;23.67;23.00;;;;;13.87;65.93;99516.16;6220219;22;46180;-83
2021/12/26 06:16:31;;;;;;;;;20.33;19.33;;;;;13.82;65.97;99518.06;6192426;22;45485;-84
2021/12/26 06:18:57;;;;;;;;;23.33;19.00;;;;;13.93;65.54;99513.38;6222111;22;46042;-83
2021/12/26 06:21:22;;;;;;;;;22.33;20.67;;;;;13.88;65.45;99517.94;6193733;22;45517;-84
2021/12/26 06:23:50;;;;;;;;;27.67;23.67;;;;;13.79;65.42;99509.19;6192761;22;46164;-84
2021/12/26 06:26:20;;;;;;;;;23.33;21.33;;;;;14.10;65.22;99523.72;6219831;22;45358;-84
2021/12/26 06:28:46;;;;;;;;;23.67;20.67;;;;;13.82;65.68;99526.06;6192689;22;45267;-84
2021/12/26 06:31:12;;;;;;;;;23.00;20.33;;;;;13.67;65.84;99522.75;6192902;22;44904;-84
2021/12/26 06:33:38;;;;;;;;;26.00;21.00;;;;;13.73;65.98;99521.75;6219350;22;46242;-83
2021/12/26 06:36:04;;;;;;;;;23.33;18.67;;;;;13.70;65.66;99522.69;6219852;22;45391;-83
2021/12/26 06:38:31;;;;;;;;;26.67;24.33;;;;;13.73;65.42;99508.41;6192398;22;45422;-84
2021/12/26 06:40:57;;;;;;;;;17.00;16.67;;;;;13.75;65.78;99514.59;6221241;22;45392;-84
2021/12/26 06:43:23;;;;;;;;;25.67;25.33;;;;;13.72;65.77;99518.22;6192755;22;47149;-84
2021/12/26 06:45:48;;;;;;;;;22.67;19.33;;;;;13.73;65.72;99522.63;6192164;22;45363;-83
2021/12/26 06:48:15;;;;;;;;;16.33;15.33;;;;;13.98;65.68;99515.03;6220433;22;45327;-83
2021/12/26 06:50:44;;;;;;;;;15.67;15.00;;;;;14.00;65.68;99520.38;6220631;22;45461;-83
2021/12/26 06:53:11;;;;;;;;;22.33;21.00;;;;;13.79;65.47;99514.53;6193047;22;46659;-83
2021/12/26 06:55:37;;;;;;;;;16.33;15.00;;;;;13.80;65.83;99512.72;6219744;22;45366;-83
2021/12/26 06:58:02;;;;;;;;;17.67;17.00;;;;;13.79;65.80;99510.94;6220782;22;45730;-83
2021/12/26 07:00:28;;;;;;;;;18.00;14.67;;;;;13.89;65.67;99515.22;6194228;22;45413;-83
2021/12/26 07:02:54;;;;;;;;;17.33;14.67;;;;;13.85;65.52;99507.28;6194477;22;47137;-84
2021/12/26 07:05:20;;;;;;;;;14.00;11.33;;;;;13.92;65.41;99517.84;6192253;22;45356;-83
2021/12/26 07:07:46;;;;;;;;;14.00;14.00;;;;;13.91;65.44;99520.53;6193123;22;45690;-83
2021/12/26 07:10:11;;;;;;;;;16.00;15.67;;;;;13.88;65.39;99509.91;6194849;22;45632;-83
2021/12/26 07:12:37;;;;;;;;;14.00;13.00;;;;;13.86;65.37;99509.06;6193579;22;47404;-83
2021/12/26 07:15:03;;;;;;;;;12.33;11.00;;;;;13.87;65.42;99508.13;6193243;22;45464;-83
2021/12/26 07:17:29;;;;;;;;;16.33;11.67;;;;;13.90;65.34;99511.63;6191013;22;45425;-83
2021/12/26 07:23:16;;;;;;;;;20.33;15.00;;;;;13.89;65.35;99527.69;6219215;22;45784;-83
2021/12/26 07:25:41;;;;;;;;;15.67;12.67;;;;;13.92;65.69;99522.31;6193664;22;45711;-83
2021/12/26 07:28:07;;;;;;;;;14.00;12.67;;;;;14.00;65.59;99523.03;6222677;22;45474;-84
2021/12/26 07:30:32;;;;;;;;;9.00;9.00;;;;;14.06;65.49;99528.25;6223496;22;44780;-84
2021/12/26 07:32:58;;;;;;;;;17.67;15.00;;;;;14.11;65.33;99529.03;6196641;22;47124;-84
2021/12/26 07:35:24;;;;;;;;;15.67;14.00;;;;;14.12;65.36;99525.47;6196533;22;45490;-84
2021/12/26 07:37:52;;;;;;;;;15.00;15.00;;;;;14.12;65.06;99530.81;6193437;22;45734;-83
2021/12/26 07:40:18;;;;;;;;;16.33;12.33;;;;;14.14;65.22;99526.31;6193553;22;45393;-84
2021/12/26 07:42:44;;;;;;;;;16.00;16.00;;;;;14.14;65.30;99530.78;6218041;22;45358;-84
2021/12/26 07:45:11;;;;;;;;;15.67;14.00;;;;;14.29;65.15;99521.56;6190802;22;45354;-83
2021/12/26 07:47:37;;;;;;;;;14.00;14.00;;;;;14.20;65.38;99526.19;6217627;22;45609;-84
2021/12/26 07:50:03;;;;;;;;;13.67;11.33;;;;;14.28;65.35;99519.78;6190543;22;45469;-84
2021/12/26 07:52:33;;;;;;;;;17.00;16.67;;;;;14.26;65.05;99525.19;6190193;22;46449;-84
2021/12/26 07:55:00;;;;;;;;;13.67;12.67;;;;;14.23;65.22;99524.38;6218687;22;45422;-83
2021/12/26 07:57:26;;;;;;;;;11.67;11.67;;;;;14.29;64.97;99529.59;6192992;22;45480;-84
2021/12/26 07:59:52;;;;;;;;;15.33;14.33;;;;;14.29;64.96;99533.13;6192836;22;45751;-84
2021/12/26 08:02:19;;;;;;;;;17.33;16.00;;;;;14.39;65.05;99533.84;6193049;22;46840;-84
2021/12/26 08:04:47;;;;;;;;;16.00;10.67;;;;;14.55;64.87;99540.63;6191891;22;45757;-84
2021/12/26 08:07:13;;;;;;;;;16.67;16.00;;;;;14.34;64.96;99539.28;6220233;22;45252;-84
2021/12/26 08:09:39;;;;;;;;;16.33;14.00;;;;;14.36;64.96;99544.59;6192388;22;45260;-84
2021/12/26 08:12:05;;;;;;;;;16.00;14.00;;;;;14.43;65.17;99538.19;6192827;22;47963;-84
2021/12/26 08:14:30;;;;;;;;;15.50;14.50;;;;;14.43;65.10;99542.69;6192333;22;45482;-84
2021/12/26 08:16:56;;;;;;;;;18.00;15.00;;;;;14.36;64.97;99531.22;6218870;22;45332;-84
2021/12/26 08:19:21;;;;;;;;;18.00;18.00;;;;;14.36;65.03;99528.53;6192079;22;45480;-83
2021/12/26 08:25:09;;;;;;;;;15.33;14.00;;;;;14.39;65.19;99548.09;6220162;22;45347;-84
2021/12/26 08:27:35;;;;;;;;;15.33;14.00;;;;;14.39;65.29;99548.09;6193869;22;45714;-84
2021/12/26 08:30:02;;;;;;;;;13.33;13.33;;;;;14.54;65.31;99549.56;6195145;22;45460;-84
2021/12/26 08:32:29;;;;;;;;;15.67;15.00;;;;;14.46;64.84;99540.84;6195141;22;46589;-84
2021/12/26 08:34:55;;;;;;;;;16.00;14.33;;;;;14.47;65.20;99553.28;6195105;22;45472;-83
2021/12/26 08:37:29;;;;;;;;;15.00;15.00;;;;;14.64;65.10;99554.75;6193737;22;45379;-84
2021/12/26 08:39:56;;;;;;;;;16.00;16.00;;;;;14.41;65.20;99554.28;6193792;22;44838;-84
2021/12/26 08:42:21;;;;;;;;;15.33;13.00;;;;;14.44;65.35;99558.72;6195649;22;47052;-84
2021/12/26 08:44:47;;;;;;;;;22.00;16.33;;;;;14.53;65.22;99561.16;6220713;22;45414;-84
2021/12/26 08:47:12;;;;;;;;;14.00;14.00;;;;;14.57;65.13;99554.88;6221177;22;45870;-83
2021/12/26 08:49:38;;;;;;;;;14.67;13.33;;;;;14.67;65.14;99560.91;6222377;22;45450;-81
2021/12/26 08:52:06;;;;;;;;;17.00;14.00;;;;;14.78;64.88;99560.66;6192345;22;47382;-84
2021/12/26 08:54:33;;;;;;;;;17.33;14.33;;;;;14.66;64.90;99563.63;6220954;22;45663;-84
2021/12/26 08:57:00;;;;;;;;;16.67;16.67;;;;;14.62;65.20;99559.25;6193220;22;45406;-84
2021/12/26 08:59:30;;;;;;;;;18.00;18.00;;;;;14.84;64.69;99567.69;6221178;22;45470;-84
2021/12/26 09:01:59;;;;;;;;;15.00;12.67;;;;;14.68;65.19;99562.66;6192870;22;47894;-83
2021/12/26 09:04:25;;;;;;;;;13.33;12.00;;;;;14.62;64.84;99551.22;6219884;22;45331;-83
2021/12/26 09:06:50;;;;;;;;;15.33;14.33;;;;;14.76;64.68;99575.88;6191916;22;44754;-83
2021/12/26 09:09:16;;;;;;;;;15.33;14.33;;;;;14.82;64.53;99574.88;6220724;22;45298;-84
2021/12/26 09:11:41;;;;;;;;;17.33;17.33;;;;;14.84;64.71;99579.28;6220889;22;45352;-83
2021/12/26 09:14:07;;;;;;;;;12.67;12.00;;;;;14.90;64.75;99584.50;6191673;22;45383;-83
2021/12/26 09:16:33;;;;;;;;;16.67;15.33;;;;;15.01;64.29;99584.28;6192715;22;45769;-83
2021/12/26 09:18:59;;;;;;;;;10.33;9.00;;;;;15.11;64.08;99582.28;6221681;22;45566;-83
2021/12/26 09:21:25;;;;;;;;;14.00;11.00;;;;;15.20;63.74;99587.41;6192653;22;47257;-83
2021/12/26 09:23:50;;;;;;;;;17.00;14.00;;;;;15.24;63.48;99582.84;6193200;22;45671;-83
2021/12/26 09:26:15;;;;;;;;;16.67;13.33;;;;;15.29;63.71;99584.50;6192949;22;45398;-83
2021/12/26 09:28:41;;;;;;;;;14.33;11.00;;;;;15.34;63.58;99595.97;6221652;22;45382;-83
2021/12/26 09:31:06;;;;;;;;;12.00;11.67;;;;;15.26;63.40;99589.94;6195446;22;46952;-83
2021/12/26 09:36:54;;;;;;;;;13.67;11.00;;;;;15.32;63.30;99599.63;6224494;22;45696;-83
2021/12/26 09:39:19;;;;;;;;;13.00;13.00;;;;;15.22;63.75;99592.72;6198905;22;45411;-83
2021/12/26 09:41:45;;;;;;;;;12.33;10.67;;;;;15.24;63.45;99597.13;6195687;22;47211;-83
2021/12/26 09:44:11;;;;;;;;;15.33;15.33;;;;;15.26;63.38;99603.31;6221875;22;45505;-83
2021/12/26 09:46:37;;;;;;;;;13.33;11.33;;;;;15.39;63.59;99599.44;6195403;22;45366;-83
2021/12/26 09:49:04;;;;;;;;;14.00;11.00;;;;;15.51;63.25;99598.28;6221827;22;45401;-83
2021/12/26 09:51:36;;;;;;;;;15.67;12.33;;;;;15.70;62.91;99606.72;6191347;22;46776;-83
2021/12/26 09:54:04;;;;;;;;;19.67;17.00;;;;;15.52;63.33;99604.50;6194022;22;45461;-82
2021/12/26 09:56:30;;;;;;;;;12.33;11.33;;;;;15.32;63.39;99596.94;6194038;22;45372;-83
2021/12/26 09:58:57;;;;;;;;;17.33;16.00;;;;;15.34;63.41;99601.34;6193268;22;45461;-83
2021/12/26 10:01:45;;;;;;;;;14.00;12.67;;;;;15.64;63.04;99604.19;6220900;22;46129;-83
2021/12/26 10:04:25;;;;;;;;;15.67;13.33;;;;;15.62;62.83;99600.69;6220677;22;45335;-82
2021/12/26 10:06:58;;;;;;;;;15.00;13.00;;;;;15.60;63.20;99599.84;6220805;22;45695;-82
2021/12/26 10:09:25;;;;;;;;;19.33;15.00;;;;;15.28;63.56;99600.59;6193839;22;45699;-83
2021/12/26 10:11:53;;;;;;;;;14.33;12.67;;;;;15.47;63.54;99601.94;6194129;22;46946;-82
2021/12/26 10:14:31;;;;;;;;;14.33;12.00;;;;;15.54;63.09;99592.81;6194236;22;45316;-83
2021/12/26 10:17:05;;;;;;;;;16.67;12.33;;;;;15.44;63.50;99595.78;6194135;22;45354;-84
2021/12/26 10:19:32;;;;;;;;;12.67;9.67;;;;;15.44;63.54;99596.66;6193776;22;45747;-84
2021/12/26 10:21:58;;;;;;;;;13.33;10.33;;;;;15.34;63.56;99584.38;6193665;22;48255;-83
2021/12/26 10:24:26;;;;;;;;;14.33;13.00;;;;;15.55;63.39;99582.97;6193200;22;45440;-83
2021/12/26 10:27:11;;;;;;;;;10.00;10.00;;;;;15.43;63.71;99591.31;6221958;22;45399;-83
2021/12/26 10:29:48;;;;;;;;;11.33;11.33;;;;;15.75;62.70;99583.41;6222561;22;45433;-83
2021/12/26 10:32:18;;;;;;;;;12.00;10.33;;;;;15.70;63.27;99581.72;6194625;22;46927;-84
2021/12/26 10:34:47;;;;;;;;;10.33;10.33;;;;;15.48;63.19;99576.91;6222108;22;45454;-84
2021/12/26 10:37:18;;;;;;;;;16.00;14.33;;;;;15.59;63.20;99580.19;6221779;22;44832;-84
2021/12/26 10:39:47;;;;;;;;;17.00;13.33;;;;;15.54;63.41;99567.81;6222118;22;45390;-84
2021/12/26 10:42:16;;;;;;;;;9.33;9.33;;;;;15.51;63.52;99567.88;6221588;22;45589;-84
2021/12/26 10:44:50;;;;;;;;;14.33;14.00;;;;;15.62;63.25;99563.16;6220589;22;45378;-84
2021/12/26 10:47:20;;;;;;;;;15.67;11.67;;;;;15.69;63.38;99575.47;6194106;22;45459;-84
2021/12/26 10:50:06;;;;;;;;;12.67;10.67;;;;;15.77;62.97;99567.25;6192883;22;45386;-85
2021/12/26 10:52:38;;;;;;;;;9.33;9.33;;;;;15.74;63.20;99565.56;6192067;22;46711;-84
2021/12/26 10:55:16;;;;;;;;;13.00;11.33;;;;;15.78;63.23;99564.53;6192847;22;45422;-84
2021/12/26 10:57:44;;;;;;;;;10.67;10.00;;;;;15.58;63.87;99566.84;6193226;22;45370;-84
2021/12/26 11:00:14;;;;;;;;;15.67;13.00;;;;;15.65;63.69;99568.41;6193756;22;45707;-84
2021/12/26 11:02:52;;;;;;;;;9.00;8.33;;;;;15.68;63.71;99568.34;6220644;22;45643;-84
2021/12/26 11:05:30;;;;;;;;;10.00;10.00;;;;;15.58;63.91;99561.47;6192765;22;44769;-84
2021/12/26 11:07:57;;;;;;;;;8.67;7.33;;;;;15.40;64.51;99557.44;6218776;22;44869;-84
2021/12/26 11:10:27;;;;;;;;;8.00;8.00;;;;;15.48;64.47;99565.31;6192410;22;45831;-84
2021/12/26 11:16:16;;;;;;;;;7.00;6.00;;;;;15.37;64.77;99573.59;6218273;22;45521;-84
2021/12/26 11:18:42;;;;;;;;;8.67;6.00;;;;;15.27;64.96;99569.38;6191432;22;45386;-84
2021/12/26 11:21:13;;;;;;;;;9.00;8.67;;;;;15.43;64.96;99559.16;6191179;22;45359;-84
2021/12/26 11:23:39;;;;;;;;;9.00;9.00;;;;;15.34;65.07;99562.97;6219808;22;45803;-84
2021/12/26 11:26:15;;;;;;;;;13.67;9.33;;;;;15.57;64.76;99562.38;6218636;22;45284;-83
2021/12/26 11:28:43;;;;;;;;;6.67;6.67;;;;;15.55;65.05;99572.25;6191621;22;45359;-84
2021/12/26 11:31:10;;;;;;;;;9.33;7.33;;;;;15.48;65.09;99565.31;6219642;22;45331;-84
2021/12/26 11:33:37;;;;;;;;;5.67;4.67;;;;;15.54;64.79;99559.78;6221172;22;46696;-84
2021/12/26 11:36:08;;;;;;;;;5.00;3.67;;;;;15.75;64.72;99564.66;6193083;22;45406;-84
2021/12/26 11:38:34;;;;;;;;;5.00;5.00;;;;;15.85;64.17;99561.69;6222010;22;45310;-84
2021/12/26 11:41:05;;;;;;;;;4.67;4.67;;;;;15.91;64.49;99553.50;6223216;22;45444;-84
2021/12/26 11:43:51;;;;;;;;;4.00;4.00;;;;;16.06;63.49;99549.50;6222710;22;45279;-84
2021/12/26 11:46:35;;;;;;;;;8.33;6.33;;;;;16.19;63.45;99545.56;6220339;22;45808;-84
2021/12/26 11:49:29;;;;;;;;;5.00;5.00;;;;;16.24;63.41;99548.13;6220407;22;45385;-84
2021/12/26 11:52:29;;;;;;;;;5.67;4.00;;;;;16.30;63.21;99556.91;6192106;22;45423;-84
2021/12/26 11:55:19;;;;;;;;;4.33;3.67;;;;;16.44;63.08;99545.78;6220659;22;45334;-84
2021/12/26 11:58:28;;;;;;;;;8.00;5.67;;;;;16.55;62.87;99546.31;6193630;22;45509;-84
2021/12/26 12:00:57;;;;;;;;;3.00;3.00;;;;;16.27;63.59;99535.50;6219772;22;45396;-84
2021/12/26 12:03:27;;;;;;;;;2.67;2.67;;;;;16.43;63.17;99535.94;6193844;22;45600;-84
2021/12/26 12:05:53;;;;;;;;;5.33;5.33;;;;;16.54;63.27;99538.31;6193015;22;48334;-84
2021/12/26 12:08:35;;;;;;;;;3.33;3.33;;;;;17.00;62.38;99521.69;6192060;22;45732;-84